createdAt,value
2019-04-04T00:00:27.613Z,13.87
2019-04-04T00:02:54.831Z,15.90
2019-04-04T00:05:22.139Z,15.80
2019-04-04T00:07:49.379Z,15.67
2019-04-04T00:10:16.645Z,13.73
2019-04-04T00:12:43.957Z,16.83
2019-04-04T00:15:11.247Z,15.80
2019-04-04T00:17:40.167Z,14.73
2019-04-04T00:20:07.603Z,13.07
2019-04-04T00:22:35.496Z,13.97
2019-04-04T00:25:03.338Z,16.40
2019-04-04T00:27:30.539Z,14.17
2019-04-04T00:29:57.802Z,16.43
2019-04-04T00:32:25.043Z,14.93
2019-04-04T00:34:52.274Z,16.30
2019-04-04T00:37:19.533Z,13.20
2019-04-04T00:39:46.715Z,16.13
2019-04-04T00:42:15.033Z,15.10
2019-04-04T00:44:43.076Z,19.43
2019-04-04T00:47:10.346Z,19.23
2019-04-04T00:49:37.673Z,18.83
2019-04-04T00:52:04.920Z,15.30
2019-04-04T00:54:32.154Z,15.63
2019-04-04T00:56:59.356Z,18.77
2019-04-04T00:59:26.617Z,20.23
2019-04-04T01:01:55.075Z,19.83
2019-04-04T01:04:22.931Z,18.43
2019-04-04T01:06:50.206Z,18.80
2019-04-04T01:09:17.414Z,19.27
2019-04-04T01:11:44.654Z,17.67
2019-04-04T01:14:11.909Z,16.10
2019-04-04T01:16:39.137Z,14.13
2019-04-04T01:19:09.678Z,15.63
2019-04-04T01:21:35.532Z,17.23
2019-04-04T01:24:02.880Z,15.13
2019-04-04T01:26:30.131Z,22.93
2019-04-04T01:28:57.364Z,17.47
2019-04-04T01:31:24.592Z,19.67
2019-04-04T01:33:52.059Z,18.33
2019-04-04T01:36:19.316Z,23.57
2019-04-04T01:38:46.548Z,22.17
2019-04-04T01:41:13.818Z,25.00
2019-04-04T01:43:41.072Z,24.03
2019-04-04T01:46:08.316Z,25.83
2019-04-04T01:48:35.598Z,25.50
2019-04-04T01:51:02.826Z,24.43
2019-04-04T01:53:30.793Z,22.03
2019-04-04T01:55:58.190Z,23.73
2019-04-04T01:58:25.439Z,25.00
2019-04-04T02:00:52.663Z,23.50
2019-04-04T02:03:22.467Z,22.90
2019-04-04T02:05:49.112Z,24.27
2019-04-04T02:08:16.341Z,27.87
2019-04-04T02:10:46.659Z,23.83
2019-04-04T02:13:13.947Z,23.67
2019-04-04T02:15:42.846Z,24.40
2019-04-04T02:18:10.342Z,23.17
2019-04-04T02:20:37.637Z,23.00
2019-04-04T02:23:04.893Z,21.53
2019-04-04T02:25:34.159Z,22.63
2019-04-04T02:28:01.306Z,22.70
2019-04-04T02:30:28.819Z,28.50
2019-04-04T02:32:59.316Z,26.70
2019-04-04T02:35:25.204Z,26.30
2019-04-04T02:37:54.883Z,29.50
2019-04-04T02:40:21.589Z,29.27
2019-04-04T02:42:48.920Z,27.93
2019-04-04T02:45:16.245Z,28.30
2019-04-04T02:47:43.495Z,25.20
2019-04-04T02:50:11.281Z,28.93
2019-04-04T02:52:38.525Z,34.83
2019-04-04T02:55:05.953Z,28.97
2019-04-04T02:57:33.214Z,27.63
2019-04-04T03:00:00.488Z,24.57
2019-04-04T03:02:27.708Z,24.37
2019-04-04T03:04:54.999Z,22.20
2019-04-04T03:07:22.264Z,23.03
2019-04-04T03:09:49.611Z,24.83
2019-04-04T03:12:17.085Z,25.57
2019-04-04T03:14:44.322Z,24.47
2019-04-04T03:17:11.569Z,24.37
2019-04-04T03:19:40.752Z,29.70
2019-04-04T03:22:07.982Z,26.40
2019-04-04T03:24:38.896Z,27.63
2019-04-04T03:27:04.471Z,24.63
2019-04-04T03:29:31.729Z,23.30
2019-04-04T03:31:58.995Z,23.03
2019-04-04T03:34:26.319Z,22.20
2019-04-04T03:36:53.601Z,23.57
2019-04-04T03:39:20.856Z,23.93
2019-04-04T03:41:48.091Z,27.53
2019-04-04T03:44:19.588Z,27.50
2019-04-04T03:46:44.577Z,25.97
2019-04-04T03:49:11.889Z,25.00
2019-04-04T03:51:39.153Z,25.23
2019-04-04T03:54:11.305Z,25.50
2019-04-04T03:56:39.429Z,24.87
2019-04-04T03:59:06.962Z,22.37
2019-04-04T04:01:34.261Z,22.23
2019-04-04T04:04:01.507Z,21.80
2019-04-04T04:06:28.757Z,22.63
2019-04-04T04:08:56.027Z,23.97
2019-04-04T04:11:23.268Z,20.30
2019-04-04T04:13:50.543Z,23.47
2019-04-04T04:16:17.785Z,22.10
2019-04-04T04:18:45.026Z,23.10
2019-04-04T04:21:12.297Z,20.80
2019-04-04T04:23:39.520Z,20.20
2019-04-04T04:26:09.355Z,20.37
2019-04-04T04:28:35.992Z,22.60
2019-04-04T04:31:03.237Z,20.03
2019-04-04T04:33:30.508Z,22.20
2019-04-04T04:35:57.778Z,20.80
2019-04-04T04:38:26.766Z,24.63
2019-04-04T04:40:54.146Z,22.23
2019-04-04T04:43:21.424Z,20.50
2019-04-04T04:45:48.655Z,24.33
2019-04-04T04:48:15.941Z,22.03
2019-04-04T04:50:43.267Z,22.03
2019-04-04T04:53:10.524Z,21.20
2019-04-04T04:55:37.754Z,19.77
2019-04-04T04:58:05.030Z,18.27
2019-04-04T05:00:32.309Z,16.80
2019-04-04T05:02:59.577Z,16.03
2019-04-04T05:05:26.803Z,16.37
2019-04-04T05:07:55.032Z,15.07
2019-04-04T05:10:22.499Z,13.77
2019-04-04T05:12:52.846Z,14.00
2019-04-04T05:15:21.227Z,15.23
2019-04-04T05:17:48.026Z,14.47
2019-04-04T05:20:15.255Z,16.77
2019-04-04T05:22:42.480Z,16.77
2019-04-04T05:25:09.942Z,16.87
2019-04-04T05:27:37.914Z,17.90
2019-04-04T05:30:08.147Z,19.90
2019-04-04T05:32:34.715Z,19.30
2019-04-04T05:35:02.157Z,19.00
2019-04-04T05:37:29.421Z,19.17
2019-04-04T05:39:59.767Z,18.73
2019-04-04T05:42:27.030Z,19.50
2019-04-04T05:44:54.276Z,17.50
2019-04-04T05:47:23.283Z,19.07
2019-04-04T05:49:50.764Z,20.77
2019-04-04T05:52:18.078Z,21.63
2019-04-04T05:54:45.381Z,19.37
2019-04-04T05:57:12.570Z,20.33
2019-04-04T05:59:42.186Z,19.90
2019-04-04T06:02:11.126Z,20.47
2019-04-04T06:04:38.099Z,20.73
2019-04-04T06:07:05.339Z,20.10
2019-04-04T06:09:32.601Z,20.57
2019-04-04T06:11:59.877Z,22.37
2019-04-04T06:14:29.688Z,20.23
2019-04-04T06:16:56.320Z,25.80
2019-04-04T06:19:26.082Z,23.37
2019-04-04T06:21:53.327Z,22.80
2019-04-04T06:24:20.566Z,20.63
2019-04-04T06:26:47.914Z,27.67
2019-04-04T06:29:17.373Z,25.10
2019-04-04T06:31:44.343Z,25.33
2019-04-04T06:34:11.613Z,23.47
2019-04-04T06:36:38.838Z,20.23
2019-04-04T06:39:07.385Z,20.27
2019-04-04T06:41:34.639Z,22.30
2019-04-04T06:44:01.843Z,21.67
2019-04-04T06:46:29.085Z,24.17
2019-04-04T06:48:56.375Z,19.57
2019-04-04T06:51:23.643Z,21.67
2019-04-04T06:53:53.320Z,18.63
2019-04-04T06:56:20.062Z,22.27
2019-04-04T06:58:47.351Z,24.57
2019-04-04T07:01:14.594Z,24.03
2019-04-04T07:03:41.858Z,27.27
2019-04-04T07:06:10.200Z,24.67
2019-04-04T07:08:38.193Z,20.77
2019-04-04T07:11:15.506Z,24.30
2019-04-04T07:13:42.090Z,23.03
2019-04-04T07:16:07.684Z,22.53
2019-04-04T07:18:33.372Z,26.80
2019-04-04T07:21:03.469Z,22.93
2019-04-04T07:23:29.794Z,22.50
2019-04-04T07:25:57.048Z,23.93
2019-04-04T07:28:24.298Z,24.70
2019-04-04T07:30:54.465Z,25.40
2019-04-04T07:33:21.474Z,27.97
2019-04-04T07:35:49.496Z,22.03
2019-04-04T07:38:16.872Z,24.43
2019-04-04T07:40:44.129Z,24.33
2019-04-04T07:43:11.395Z,26.90
2019-04-04T07:45:38.637Z,26.17
2019-04-04T07:48:05.901Z,25.23
2019-04-04T07:50:33.201Z,22.67
2019-04-04T07:53:04.051Z,24.13
2019-04-04T07:55:29.568Z,22.07
2019-04-04T07:57:56.873Z,22.03
2019-04-04T08:00:24.110Z,22.50
2019-04-04T08:02:51.356Z,26.03
2019-04-04T08:05:18.738Z,23.47
2019-04-04T08:07:46.035Z,27.13
2019-04-04T08:10:20.496Z,26.43
2019-04-04T08:12:42.969Z,24.23
2019-04-04T08:15:10.613Z,23.67
2019-04-04T08:17:37.851Z,23.53
2019-04-04T08:20:05.905Z,23.33
2019-04-04T08:22:33.174Z,20.30
2019-04-04T08:25:00.995Z,23.70
2019-04-04T08:27:28.396Z,23.87
2019-04-04T08:29:55.660Z,21.93
2019-04-04T08:32:22.957Z,21.07
2019-04-04T08:34:50.218Z,19.63
2019-04-04T08:37:17.496Z,22.27
2019-04-04T08:39:44.782Z,20.70
2019-04-04T08:42:12.044Z,17.90
2019-04-04T08:44:39.265Z,22.63
2019-04-04T08:47:06.508Z,23.10
2019-04-04T08:49:33.760Z,21.27
2019-04-04T08:52:01.071Z,20.80
2019-04-04T08:54:28.371Z,22.13
2019-04-04T08:56:55.681Z,23.37
2019-04-04T08:59:22.908Z,21.17
2019-04-04T09:01:50.153Z,21.47
2019-04-04T09:04:17.428Z,21.93
2019-04-04T09:06:44.694Z,20.93
2019-04-04T09:09:11.939Z,22.53
2019-04-04T09:11:39.231Z,23.63
2019-04-04T09:14:06.476Z,25.10
2019-04-04T09:16:33.719Z,26.80
2019-04-04T09:19:00.979Z,24.13
2019-04-04T09:21:28.223Z,20.17
2019-04-04T09:23:55.466Z,19.27
2019-04-04T09:26:22.694Z,23.00
2019-04-04T09:28:49.989Z,30.47
2019-04-04T09:31:17.298Z,23.80
2019-04-04T09:33:44.542Z,27.77
2019-04-04T09:36:11.849Z,22.43
2019-04-04T09:38:39.174Z,24.93
2019-04-04T09:41:06.515Z,23.37
2019-04-04T09:43:33.833Z,23.03
2019-04-04T09:46:01.131Z,22.47
2019-04-04T09:48:28.347Z,22.53
2019-04-04T09:50:55.660Z,24.67
2019-04-04T09:53:22.956Z,25.23
2019-04-04T09:55:50.202Z,23.30
2019-04-04T09:58:17.429Z,26.27
2019-04-04T10:00:45.968Z,26.80
2019-04-04T10:03:13.212Z,22.53
2019-04-04T10:05:40.509Z,20.70
2019-04-04T10:08:07.715Z,21.73
2019-04-04T10:10:34.968Z,20.97
2019-04-04T10:13:02.215Z,23.83
2019-04-04T10:15:29.465Z,23.30
2019-04-04T10:17:56.726Z,24.37
2019-04-04T10:20:24.116Z,21.83
2019-04-04T10:22:51.447Z,23.97
2019-04-04T10:25:18.702Z,23.23
2019-04-04T10:27:45.986Z,20.47
2019-04-04T10:30:13.609Z,23.37
2019-04-04T10:32:40.851Z,20.67
2019-04-04T10:35:08.323Z,24.57
2019-04-04T10:37:35.873Z,19.60
2019-04-04T10:40:04.258Z,19.73
2019-04-04T10:42:31.527Z,20.57
2019-04-04T10:44:58.819Z,19.80
2019-04-04T10:47:26.050Z,21.10
2019-04-04T10:49:53.320Z,19.13
2019-04-04T10:52:20.632Z,19.90
2019-04-04T10:54:47.898Z,18.00
2019-04-04T10:57:15.140Z,18.40
2019-04-04T10:59:42.506Z,17.90
2019-04-04T11:02:09.742Z,15.17
2019-04-04T11:04:37.108Z,12.43
2019-04-04T11:07:04.589Z,13.07
2019-04-04T11:09:41.303Z,16.73
2019-04-04T11:12:01.005Z,15.07
2019-04-04T11:14:28.302Z,14.90
2019-04-04T11:16:55.569Z,13.70
2019-04-04T11:19:31.077Z,13.80
2019-04-04T11:21:52.029Z,14.27
2019-04-04T11:24:19.388Z,18.27
2019-04-04T11:26:46.630Z,13.37
2019-04-04T11:29:13.843Z,15.83
2019-04-04T11:31:41.120Z,17.23
2019-04-04T11:34:08.483Z,15.47
2019-04-04T11:36:35.746Z,15.20
2019-04-04T11:39:05.531Z,16.80
2019-04-04T11:41:32.756Z,15.27
2019-04-04T11:44:00.050Z,14.30
2019-04-04T11:46:27.280Z,14.50
2019-04-04T11:48:54.523Z,17.23
2019-04-04T11:51:21.767Z,13.13
2019-04-04T11:53:49.020Z,12.33
2019-04-04T11:56:16.297Z,14.70
2019-04-04T11:58:43.636Z,16.13
2019-04-04T12:01:11.587Z,14.23
2019-04-04T12:03:38.883Z,12.43
2019-04-04T12:06:06.103Z,12.97
2019-04-04T12:08:33.352Z,12.00
2019-04-04T12:11:00.671Z,13.77
2019-04-04T12:16:13.270Z,10.97
2019-04-04T12:18:40.483Z,9.73
2019-04-04T12:21:07.698Z,11.30
2019-04-04T12:23:34.983Z,10.40
2019-04-04T12:26:02.234Z,10.80
2019-04-04T12:28:29.463Z,11.73
2019-04-04T12:30:56.755Z,7.57
2019-04-04T12:33:24.104Z,7.17
2019-04-04T12:35:52.596Z,7.03
2019-04-04T12:38:19.968Z,8.03
2019-04-04T12:40:47.212Z,7.67
2019-04-04T12:43:14.479Z,6.07
2019-04-04T12:45:41.753Z,5.27
2019-04-04T12:48:10.092Z,5.60
2019-04-04T12:50:37.423Z,5.30
2019-04-04T12:53:04.840Z,3.97
2019-04-04T12:55:32.297Z,5.90
2019-04-04T12:57:59.549Z,7.00
2019-04-04T13:00:26.822Z,5.33
2019-04-04T13:02:54.070Z,6.10
2019-04-04T13:05:21.385Z,4.50
2019-04-04T13:07:48.632Z,5.23
2019-04-04T13:10:16.256Z,5.73
2019-04-04T13:12:43.518Z,6.03
2019-04-04T13:15:11.396Z,5.27
2019-04-04T13:17:38.670Z,5.70
2019-04-04T13:20:06.941Z,7.10
2019-04-04T13:22:34.179Z,6.03
2019-04-04T13:25:01.451Z,6.10
2019-04-04T13:27:28.727Z,5.70
2019-04-04T13:29:55.998Z,5.80
2019-04-04T13:32:23.228Z,5.93
2019-04-04T13:34:59.119Z,6.77
2019-04-04T13:37:19.654Z,6.60
2019-04-04T13:39:46.896Z,5.37
2019-04-04T13:42:14.151Z,5.87
2019-04-04T13:44:41.464Z,6.00
2019-04-04T13:47:08.746Z,7.07
2019-04-04T13:49:35.963Z,5.70
2019-04-04T13:52:03.879Z,5.13
2019-04-04T13:54:31.155Z,5.70
2019-04-04T13:56:58.402Z,5.33
2019-04-04T13:59:25.708Z,6.07
2019-04-04T14:01:52.960Z,5.17
2019-04-04T14:04:20.611Z,6.57
2019-04-04T14:06:49.221Z,5.33
2019-04-04T14:09:16.452Z,4.73
2019-04-04T14:11:43.712Z,4.97
2019-04-04T14:14:11.067Z,5.30
2019-04-04T14:16:38.732Z,6.60
2019-04-04T14:19:05.949Z,6.57
2019-04-04T14:21:33.198Z,8.03
2019-04-04T14:24:12.400Z,8.10
2019-04-04T14:26:31.390Z,6.07
2019-04-04T14:28:58.787Z,7.43
2019-04-04T14:31:26.052Z,7.13
2019-04-04T14:33:53.291Z,7.50
2019-04-04T14:36:20.531Z,6.33
2019-04-04T14:38:47.808Z,6.47
2019-04-04T14:41:15.042Z,7.60
2019-04-04T14:43:42.319Z,8.83
2019-04-04T14:46:09.603Z,8.03
2019-04-04T14:48:36.855Z,7.73
2019-04-04T14:51:04.249Z,7.33
2019-04-04T14:53:31.498Z,7.50
2019-04-04T14:55:58.813Z,7.40
2019-04-04T14:58:26.035Z,9.13
2019-04-04T15:00:53.309Z,8.20
2019-04-04T15:03:20.562Z,10.23
2019-04-04T15:05:47.847Z,9.23
2019-04-04T15:08:15.105Z,10.07
2019-04-04T15:10:42.459Z,8.90
2019-04-04T15:13:09.788Z,9.50
2019-04-04T15:15:38.855Z,9.37
2019-04-04T15:18:06.111Z,9.03
2019-04-04T15:20:33.438Z,10.57
2019-04-04T15:23:00.713Z,8.97
2019-04-04T15:25:28.012Z,10.23
2019-04-04T15:27:55.291Z,9.20
2019-04-04T15:30:22.635Z,7.87
2019-04-04T15:32:50.015Z,11.23
2019-04-04T15:35:17.361Z,10.70
2019-04-04T15:37:44.586Z,8.73
2019-04-04T15:40:12.140Z,6.53
2019-04-04T15:42:39.399Z,8.07
2019-04-04T15:45:07.177Z,9.17
2019-04-04T15:47:34.419Z,9.53
2019-04-04T15:50:06.452Z,10.23
2019-04-04T15:52:33.754Z,8.63
2019-04-04T15:55:01.028Z,9.00
2019-04-04T15:57:28.309Z,9.03
2019-04-04T15:59:55.559Z,8.20
2019-04-04T16:02:22.790Z,8.07
2019-04-04T16:04:50.088Z,9.47
2019-04-04T16:07:17.417Z,9.30
2019-04-04T16:09:44.666Z,8.77
2019-04-04T16:12:11.925Z,6.10
2019-04-04T16:14:39.169Z,6.80
2019-04-04T16:17:06.426Z,7.70
2019-04-04T16:19:33.686Z,5.47
2019-04-04T16:22:00.981Z,4.67
2019-04-04T16:24:28.917Z,5.07
2019-04-04T16:26:56.401Z,5.20
2019-04-04T16:29:23.709Z,5.00
2019-04-04T16:31:51.077Z,5.90
2019-04-04T16:34:18.383Z,5.23
2019-04-04T16:36:45.726Z,5.33
2019-04-04T16:39:13.006Z,6.73
2019-04-04T16:41:40.245Z,6.63
2019-04-04T16:44:07.509Z,5.87
2019-04-04T16:46:34.769Z,6.57
2019-04-04T16:49:02.068Z,6.43
2019-04-04T16:51:29.381Z,6.63
2019-04-04T16:53:56.753Z,5.33
2019-04-04T16:56:24.226Z,4.07
2019-04-04T16:58:51.464Z,4.83
2019-04-04T17:01:18.736Z,5.67
2019-04-04T17:03:46.025Z,5.53
2019-04-04T17:06:13.259Z,6.80
2019-04-04T17:08:40.511Z,6.10
2019-04-04T17:11:07.765Z,5.73
2019-04-04T17:13:34.999Z,5.77
2019-04-04T17:16:02.254Z,7.17
2019-04-04T17:18:29.556Z,6.83
2019-04-04T17:20:56.776Z,6.37
2019-04-04T17:23:24.016Z,6.43
2019-04-04T17:25:51.267Z,9.70
2019-04-04T17:28:18.505Z,8.37
2019-04-04T17:30:46.144Z,7.27
2019-04-04T17:33:13.744Z,6.50
2019-04-04T17:35:41.048Z,7.03
2019-04-04T17:38:08.287Z,6.03
2019-04-04T17:40:35.599Z,5.60
2019-04-04T17:43:03.495Z,6.70
2019-04-04T17:45:31.200Z,6.00
2019-04-04T17:47:58.548Z,5.47
2019-04-04T17:50:26.784Z,5.43
2019-04-04T17:52:54.140Z,6.27
2019-04-04T17:55:21.803Z,5.20
2019-04-04T17:57:49.104Z,6.67
2019-04-04T18:00:18.848Z,5.23
2019-04-04T18:02:46.161Z,7.23
2019-04-04T18:05:13.711Z,6.40
2019-04-04T18:07:40.988Z,5.63
2019-04-04T18:10:08.571Z,5.90
2019-04-04T18:12:40.474Z,6.37
2019-04-04T18:15:05.215Z,6.30
2019-04-04T18:17:33.090Z,5.73
2019-04-04T18:20:00.374Z,7.70
2019-04-04T18:22:27.593Z,8.17
2019-04-04T18:24:54.849Z,7.77
2019-04-04T18:27:22.111Z,7.73
2019-04-04T18:29:49.329Z,7.70
2019-04-04T18:32:16.590Z,7.63
2019-04-04T18:34:44.027Z,7.60
2019-04-04T18:37:11.763Z,5.90
2019-04-04T18:39:39.149Z,6.07
2019-04-04T18:42:06.387Z,6.77
2019-04-04T18:44:33.960Z,8.07
2019-04-04T18:47:01.458Z,6.50
2019-04-04T18:49:28.707Z,7.20
2019-04-04T18:51:55.923Z,6.33
2019-04-04T18:54:23.235Z,4.93
2019-04-04T18:56:50.456Z,5.17
2019-04-04T18:59:17.669Z,5.40
2019-04-04T19:01:45.023Z,6.53
2019-04-04T19:04:12.286Z,6.30
2019-04-04T19:06:39.586Z,5.93
2019-04-04T19:09:15.213Z,6.80
2019-04-04T19:11:39.961Z,7.13
2019-04-04T19:14:07.227Z,6.90
2019-04-04T19:16:34.494Z,6.90
2019-04-04T19:19:01.744Z,7.73
2019-04-04T19:21:28.982Z,5.30
2019-04-04T19:23:56.228Z,8.53
2019-04-04T19:26:24.522Z,7.10
2019-04-04T19:28:51.767Z,7.53
2019-04-04T19:31:19.182Z,8.17
2019-04-04T19:33:46.581Z,6.73
2019-04-04T19:36:13.923Z,6.07
2019-04-04T19:38:41.158Z,8.07
2019-04-04T19:41:08.434Z,7.20
2019-04-04T19:43:35.693Z,6.67
2019-04-04T19:46:02.901Z,7.07
2019-04-04T19:48:34.192Z,8.77
2019-04-04T19:51:01.531Z,7.63
2019-04-04T19:53:28.808Z,7.10
2019-04-04T19:55:56.155Z,6.87
2019-04-04T19:58:23.379Z,7.00
2019-04-04T20:00:50.708Z,6.33
2019-04-04T20:03:17.936Z,6.77
2019-04-04T20:05:45.173Z,6.10
2019-04-04T20:08:12.438Z,6.07
2019-04-04T20:10:42.510Z,6.60
2019-04-04T20:13:09.737Z,7.93
2019-04-04T20:15:37.026Z,6.87
2019-04-04T20:18:04.359Z,6.47
2019-04-04T20:20:31.651Z,6.33
2019-04-04T20:22:59.142Z,6.53
2019-04-04T20:25:26.368Z,7.47
2019-04-04T20:27:55.094Z,6.83
2019-04-04T20:30:35.931Z,6.60
2019-04-04T20:33:03.267Z,5.43
2019-04-04T20:35:30.849Z,6.53
2019-04-04T20:37:58.131Z,5.77
2019-04-04T20:40:25.372Z,7.43
2019-04-04T20:42:52.613Z,4.70
2019-04-04T20:45:19.909Z,3.33
2019-04-04T20:47:47.128Z,3.57
2019-04-04T20:50:14.456Z,3.60
2019-04-04T20:52:41.704Z,4.23
2019-04-04T20:55:08.930Z,4.70
2019-04-04T20:57:36.151Z,4.20
2019-04-04T21:00:04.237Z,3.20
2019-04-04T21:02:31.443Z,2.87
2019-04-04T21:04:58.643Z,2.80
2019-04-04T21:07:25.922Z,3.27
2019-04-04T21:09:53.163Z,2.20
2019-04-04T21:12:20.413Z,1.90
2019-04-04T21:14:47.720Z,2.47
2019-04-04T21:17:14.914Z,2.00
2019-04-04T21:19:42.160Z,2.33
2019-04-04T21:22:09.448Z,2.17
2019-04-04T21:24:36.733Z,2.57
2019-04-04T21:27:03.979Z,2.47
2019-04-04T21:29:31.219Z,2.53
2019-04-04T21:31:58.444Z,2.27
2019-04-04T21:34:25.678Z,3.03
2019-04-04T21:36:52.920Z,4.27
2019-04-04T21:39:20.200Z,3.53
2019-04-04T21:41:47.458Z,3.10
2019-04-04T21:44:14.747Z,3.97
2019-04-04T21:46:42.002Z,2.90
2019-04-04T21:49:09.214Z,3.57
2019-04-04T21:51:36.456Z,4.37
2019-04-04T21:54:03.866Z,3.57
2019-04-04T21:56:31.156Z,3.57
2019-04-04T21:58:58.383Z,4.77
2019-04-04T22:01:26.041Z,3.97
2019-04-04T22:03:53.292Z,3.67
2019-04-04T22:06:20.544Z,3.73
2019-04-04T22:08:47.777Z,4.17
2019-04-04T22:11:15.069Z,5.60
2019-04-04T22:13:42.321Z,4.27
2019-04-04T22:16:09.565Z,4.07
2019-04-04T22:18:36.859Z,4.93
2019-04-04T22:21:04.137Z,4.23
2019-04-04T22:23:31.396Z,4.93
2019-04-04T22:25:58.688Z,4.17
2019-04-04T22:28:25.935Z,5.57
2019-04-04T22:30:53.194Z,5.80
2019-04-04T22:33:20.473Z,6.83
2019-04-04T22:35:47.760Z,6.70
2019-04-04T22:38:15.004Z,6.37
2019-04-04T22:40:42.322Z,4.67
2019-04-04T22:43:09.562Z,5.60
2019-04-04T22:45:36.802Z,4.63
2019-04-04T22:48:04.372Z,5.53
2019-04-04T22:50:31.631Z,6.20
2019-04-04T22:52:58.908Z,6.13
2019-04-04T22:55:26.692Z,5.40
2019-04-04T22:57:54.099Z,5.17
2019-04-04T23:00:21.455Z,5.60
2019-04-04T23:02:48.855Z,5.47
2019-04-04T23:05:16.153Z,5.77
2019-04-04T23:07:43.444Z,5.50
2019-04-04T23:10:10.701Z,4.77
2019-04-04T23:12:38.002Z,5.13
2019-04-04T23:15:06.611Z,5.40
2019-04-04T23:17:33.879Z,4.50
2019-04-04T23:20:01.189Z,5.70
2019-04-04T23:22:28.460Z,5.57
2019-04-04T23:24:55.712Z,5.50
2019-04-04T23:27:23.033Z,6.57
2019-04-04T23:29:50.288Z,5.50
2019-04-04T23:32:17.558Z,5.80
2019-04-04T23:34:44.892Z,4.83
2019-04-04T23:37:12.156Z,5.37
2019-04-04T23:39:39.401Z,5.87
2019-04-04T23:42:06.682Z,9.27
2019-04-04T23:44:33.918Z,7.13
2019-04-04T23:47:01.165Z,7.27
2019-04-04T23:49:28.459Z,8.93
2019-04-04T23:51:55.734Z,7.97
2019-04-04T23:54:23.031Z,12.67
2019-04-04T23:56:50.344Z,11.07
2019-04-04T23:59:17.588Z,8.80
